createdAt,value
2018-08-24T00:01:49.045Z,99.90
2018-08-24T00:04:17.405Z,99.90
2018-08-24T00:06:45.779Z,99.90
2018-08-24T00:09:15.341Z,99.90
2018-08-24T00:11:43.716Z,99.90
2018-08-24T00:14:12.973Z,99.90
2018-08-24T00:16:42.330Z,99.90
2018-08-24T00:19:12.085Z,99.90
2018-08-24T00:21:40.641Z,99.90
2018-08-24T00:24:09.903Z,99.90
2018-08-24T00:26:38.249Z,99.90
2018-08-24T00:29:07.288Z,99.90
2018-08-24T00:31:36.423Z,99.90
2018-08-24T00:34:04.817Z,99.90
2018-08-24T00:36:33.197Z,99.90
2018-08-24T00:39:01.580Z,99.90
2018-08-24T00:41:29.965Z,99.90
2018-08-24T00:43:58.383Z,99.90
2018-08-24T00:46:26.717Z,99.90
2018-08-24T00:48:55.085Z,99.90
2018-08-24T00:51:23.424Z,99.90
2018-08-24T00:53:51.845Z,99.90
2018-08-24T00:56:20.252Z,99.90
2018-08-24T00:58:48.638Z,99.90
2018-08-24T01:01:17.032Z,99.90
2018-08-24T01:03:45.414Z,99.90
2018-08-24T01:06:13.805Z,99.90
2018-08-24T01:08:44.302Z,99.90
2018-08-24T01:11:12.794Z,99.90
2018-08-24T01:13:41.173Z,99.90
2018-08-24T01:16:10.411Z,99.90
2018-08-24T01:18:44.126Z,99.90
2018-08-24T01:21:17.259Z,99.90
2018-08-24T01:23:45.663Z,99.90
2018-08-24T01:26:18.248Z,99.90
2018-08-24T01:28:46.901Z,99.90
2018-08-24T01:31:15.266Z,99.90
2018-08-24T01:33:43.657Z,99.90
2018-08-24T01:36:12.043Z,99.90
2018-08-24T01:38:40.470Z,99.90
2018-08-24T01:41:08.900Z,99.90
2018-08-24T01:43:37.301Z,99.90
2018-08-24T01:46:11.164Z,99.90
2018-08-24T01:48:40.387Z,99.90
2018-08-24T01:51:08.861Z,99.90
2018-08-24T01:53:37.346Z,99.90
2018-08-24T01:56:05.909Z,99.90
2018-08-24T01:58:34.290Z,99.90
2018-08-24T02:01:02.672Z,99.90
2018-08-24T02:03:31.037Z,99.90
2018-08-24T02:06:05.570Z,99.90
2018-08-24T02:08:40.539Z,99.90
2018-08-24T02:11:14.104Z,99.90
2018-08-24T02:13:47.942Z,99.90
2018-08-24T02:16:16.318Z,99.90
2018-08-24T02:18:50.206Z,99.90
2018-08-24T02:21:23.976Z,99.90
2018-08-24T02:23:52.345Z,99.90
2018-08-24T02:26:20.700Z,99.90
2018-08-24T02:28:49.083Z,99.90
2018-08-24T02:31:17.594Z,99.90
2018-08-24T02:33:45.871Z,99.90
2018-08-24T02:36:14.267Z,99.90
2018-08-24T02:38:42.608Z,99.90
2018-08-24T02:41:10.980Z,99.90
2018-08-24T02:43:39.349Z,99.90
2018-08-24T02:46:07.774Z,99.90
2018-08-24T02:48:36.110Z,99.90
2018-08-24T02:51:04.596Z,99.90
2018-08-24T02:53:32.999Z,99.90
2018-08-24T02:56:01.423Z,99.90
2018-08-24T02:58:29.795Z,99.90
2018-08-24T03:00:58.194Z,99.90
2018-08-24T03:03:26.586Z,99.90
2018-08-24T03:05:54.979Z,99.90
2018-08-24T03:08:23.410Z,99.90
2018-08-24T03:10:51.756Z,99.90
2018-08-24T03:13:20.098Z,99.90
2018-08-24T03:15:48.519Z,99.90
2018-08-24T03:18:16.895Z,99.90
2018-08-24T03:20:45.295Z,99.90
2018-08-24T03:23:13.660Z,99.90
2018-08-24T03:25:42.058Z,99.90
2018-08-24T03:28:10.432Z,99.90
2018-08-24T03:30:38.864Z,99.90
2018-08-24T03:33:07.348Z,99.90
2018-08-24T03:35:35.784Z,99.90
2018-08-24T03:38:04.171Z,99.90
2018-08-24T03:40:32.579Z,99.90
2018-08-24T03:43:00.958Z,99.90
2018-08-24T03:45:29.460Z,99.90
2018-08-24T03:47:57.834Z,99.90
2018-08-24T03:50:26.249Z,99.90
2018-08-24T03:52:54.682Z,99.90
2018-08-24T03:55:23.077Z,99.90
2018-08-24T03:57:51.414Z,99.90
2018-08-24T04:00:19.769Z,99.90
2018-08-24T04:02:48.152Z,99.90
2018-08-24T04:05:16.882Z,99.90
2018-08-24T04:07:45.265Z,99.90
2018-08-24T04:10:13.658Z,99.90
2018-08-24T04:12:42.061Z,99.90
2018-08-24T04:15:10.479Z,99.90
2018-08-24T04:17:43.373Z,99.90
2018-08-24T04:20:12.245Z,99.90
2018-08-24T04:22:40.772Z,99.90
2018-08-24T04:25:09.651Z,99.90
2018-08-24T04:27:38.537Z,99.90
2018-08-24T04:30:07.146Z,99.90
2018-08-24T04:32:35.625Z,99.90
2018-08-24T04:35:04.534Z,99.90
2018-08-24T04:37:32.857Z,99.90
2018-08-24T04:40:01.280Z,99.90
2018-08-24T04:42:29.761Z,99.90
2018-08-24T04:44:58.129Z,99.90
2018-08-24T04:47:57.266Z,99.90
2018-08-24T04:50:25.680Z,99.90
2018-08-24T04:52:54.061Z,99.90
2018-08-24T04:55:22.462Z,99.90
2018-08-24T04:57:50.868Z,99.90
2018-08-24T05:00:19.284Z,99.90
2018-08-24T05:02:47.684Z,99.90
2018-08-24T05:05:16.032Z,99.90
2018-08-24T05:07:44.455Z,99.90
2018-08-24T05:10:12.815Z,99.90
2018-08-24T05:12:41.208Z,99.90
2018-08-24T05:15:09.608Z,99.90
2018-08-24T05:17:37.988Z,99.90
2018-08-24T05:20:06.405Z,99.90
2018-08-24T05:22:34.777Z,99.90
2018-08-24T05:25:03.134Z,99.90
2018-08-24T05:27:31.579Z,99.90
2018-08-24T05:29:59.990Z,99.90
2018-08-24T05:32:28.420Z,99.90
2018-08-24T05:34:56.817Z,99.90
2018-08-24T05:37:25.298Z,99.90
2018-08-24T05:39:53.663Z,99.90
2018-08-24T05:42:22.118Z,99.90
2018-08-24T05:44:50.530Z,99.90
2018-08-24T05:47:18.967Z,99.90
2018-08-24T05:49:47.390Z,99.90
2018-08-24T05:52:15.859Z,99.90
2018-08-24T05:54:44.290Z,99.90
2018-08-24T05:57:12.670Z,99.90
2018-08-24T05:59:41.312Z,99.90
2018-08-24T06:02:09.893Z,99.90
2018-08-24T06:04:38.332Z,99.90
2018-08-24T06:07:06.855Z,99.90
2018-08-24T06:09:35.232Z,99.90
2018-08-24T06:12:03.639Z,99.90
2018-08-24T06:14:32.144Z,99.90
2018-08-24T06:17:05.955Z,99.90
2018-08-24T06:19:34.531Z,99.90
2018-08-24T06:22:03.255Z,99.90
2018-08-24T06:24:31.849Z,99.70
2018-08-24T06:27:00.282Z,99.30
2018-08-24T06:29:28.719Z,98.90
2018-08-24T06:31:57.088Z,98.20
2018-08-24T06:34:25.522Z,97.80
2018-08-24T06:36:53.939Z,97.60
2018-08-24T06:39:22.339Z,97.40
2018-08-24T06:41:51.402Z,97.40
2018-08-24T06:44:19.898Z,97.40
2018-08-24T06:46:48.256Z,96.80
2018-08-24T06:49:16.680Z,96.40
2018-08-24T06:51:45.074Z,95.90
2018-08-24T06:54:13.478Z,95.50
2018-08-24T06:56:41.894Z,94.70
2018-08-24T06:59:10.538Z,94.70
2018-08-24T07:01:38.961Z,93.80
2018-08-24T07:04:07.383Z,93.90
2018-08-24T07:06:35.846Z,93.30
2018-08-24T07:09:05.331Z,92.20
2018-08-24T07:11:33.777Z,91.80
2018-08-24T07:14:02.214Z,89.90
2018-08-24T07:16:30.671Z,88.40
2018-08-24T07:18:59.152Z,90.50
2018-08-24T07:21:27.682Z,90.50
2018-08-24T07:23:56.137Z,89.40
2018-08-24T07:26:24.568Z,85.60
2018-08-24T07:28:53.030Z,85.70
2018-08-24T07:31:21.414Z,83.60
2018-08-24T07:33:49.898Z,84.40
2018-08-24T07:36:18.323Z,87.80
2018-08-24T07:38:46.771Z,87.80
2018-08-24T07:41:15.191Z,87.90
2018-08-24T07:43:43.659Z,88.70
2018-08-24T07:46:12.115Z,89.60
2018-08-24T07:48:40.515Z,88.40
2018-08-24T07:51:11.893Z,88.50
2018-08-24T07:53:40.339Z,87.60
2018-08-24T07:56:08.806Z,86.60
2018-08-24T07:58:37.236Z,87.10
2018-08-24T08:01:05.787Z,87.00
2018-08-24T08:03:34.249Z,86.90
2018-08-24T08:06:02.722Z,86.40
2018-08-24T08:08:31.123Z,85.90
2018-08-24T08:13:33.576Z,85.70
2018-08-24T08:16:02.015Z,86.00
2018-08-24T08:18:30.496Z,84.50
2018-08-24T08:20:58.907Z,84.00
2018-08-24T08:23:27.290Z,84.60
2018-08-24T08:25:55.742Z,84.60
2018-08-24T08:28:24.139Z,85.10
2018-08-24T08:30:52.582Z,84.60
2018-08-24T08:33:20.979Z,85.60
2018-08-24T08:35:49.426Z,86.80
2018-08-24T08:38:17.885Z,87.90
2018-08-24T08:40:46.391Z,86.90
2018-08-24T08:43:14.805Z,87.60
2018-08-24T08:45:43.304Z,88.50
2018-08-24T08:48:11.767Z,89.20
2018-08-24T08:50:40.348Z,89.90
2018-08-24T08:53:08.955Z,89.80
2018-08-24T08:55:37.526Z,89.90
2018-08-24T08:58:05.936Z,90.10
2018-08-24T09:00:34.369Z,89.40
2018-08-24T09:03:02.787Z,89.00
2018-08-24T09:05:31.265Z,86.40
2018-08-24T09:07:59.653Z,85.60
2018-08-24T09:10:28.078Z,87.10
2018-08-24T09:12:56.558Z,90.60
2018-08-24T09:15:24.931Z,92.10
2018-08-24T09:17:58.708Z,92.70
2018-08-24T09:20:32.482Z,92.70
2018-08-24T09:23:06.338Z,92.70
2018-08-24T09:25:40.162Z,94.70
2018-08-24T09:28:13.803Z,94.00
2018-08-24T09:30:49.258Z,96.40
2018-08-24T09:33:17.660Z,97.60
2018-08-24T09:35:46.331Z,99.90
2018-08-24T09:38:14.699Z,99.90
2018-08-24T09:40:48.410Z,99.90
2018-08-24T09:43:22.106Z,99.90
2018-08-24T09:45:50.542Z,99.90
2018-08-24T09:48:24.425Z,99.90
2018-08-24T09:50:58.281Z,99.90
2018-08-24T09:53:31.847Z,99.90
2018-08-24T09:56:00.368Z,99.90
2018-08-24T09:58:29.043Z,99.90
2018-08-24T10:01:02.982Z,99.90
2018-08-24T10:03:36.890Z,99.90
2018-08-24T10:06:10.947Z,99.90
2018-08-24T10:08:44.642Z,99.90
2018-08-24T10:11:13.269Z,99.90
2018-08-24T10:13:41.821Z,99.90
2018-08-24T10:16:10.350Z,99.90
2018-08-24T10:18:38.938Z,99.90
2018-08-24T10:21:07.505Z,99.90
2018-08-24T10:23:36.169Z,99.90
2018-08-24T10:26:04.616Z,99.90
2018-08-24T10:28:33.241Z,99.90
2018-08-24T10:31:01.690Z,99.90
2018-08-24T10:33:30.109Z,99.90
2018-08-24T10:35:58.505Z,99.90
2018-08-24T10:38:27.201Z,99.90
2018-08-24T10:40:55.687Z,99.90
2018-08-24T10:43:24.040Z,99.90
2018-08-24T10:45:52.422Z,99.90
2018-08-24T10:48:21.314Z,99.90
2018-08-24T10:50:49.758Z,99.90
2018-08-24T10:53:18.194Z,99.90
2018-08-24T10:55:46.652Z,99.90
2018-08-24T10:58:15.046Z,99.90
2018-08-24T11:00:43.421Z,99.90
2018-08-24T11:03:11.898Z,99.90
2018-08-24T11:05:40.362Z,99.90
2018-08-24T11:08:08.870Z,99.90
2018-08-24T11:10:37.296Z,99.90
2018-08-24T11:13:05.942Z,99.90
2018-08-24T11:15:35.814Z,99.90
2018-08-24T11:18:09.764Z,99.90
2018-08-24T11:20:39.816Z,99.90
2018-08-24T11:23:08.626Z,99.90
2018-08-24T11:25:36.988Z,99.90
2018-08-24T11:28:05.395Z,99.70
2018-08-24T11:30:33.864Z,98.80
2018-08-24T11:33:02.321Z,98.70
2018-08-24T11:35:30.767Z,98.40
2018-08-24T11:37:59.186Z,96.80
2018-08-24T11:40:27.558Z,95.90
2018-08-24T11:42:56.242Z,95.40
2018-08-24T11:45:24.637Z,94.70
2018-08-24T11:47:53.157Z,93.90
2018-08-24T11:50:21.487Z,93.80
2018-08-24T11:52:49.944Z,92.00
2018-08-24T11:55:18.353Z,92.10
2018-08-24T11:57:46.769Z,92.10
2018-08-24T12:00:15.263Z,91.50
2018-08-24T12:02:43.686Z,90.10
2018-08-24T12:05:12.189Z,87.80
2018-08-24T12:07:40.947Z,87.10
2018-08-24T12:10:09.385Z,85.10
2018-08-24T12:12:37.858Z,86.20
2018-08-24T12:15:06.320Z,83.90
2018-08-24T12:17:36.646Z,82.70
2018-08-24T12:20:05.983Z,80.90
2018-08-24T12:22:34.534Z,79.50
2018-08-24T12:25:03.050Z,78.90
2018-08-24T12:27:31.495Z,76.40
2018-08-24T12:29:59.885Z,75.20
2018-08-24T12:32:28.333Z,75.70
2018-08-24T12:34:56.731Z,75.40
2018-08-24T12:37:25.153Z,73.80
2018-08-24T12:39:53.586Z,73.20
2018-08-24T12:42:22.102Z,72.10
2018-08-24T12:44:50.526Z,72.90
2018-08-24T12:47:19.212Z,69.50
2018-08-24T12:49:47.648Z,68.70
2018-08-24T12:52:16.156Z,65.60
2018-08-24T12:54:44.554Z,64.80
2018-08-24T12:57:12.964Z,63.70
2018-08-24T12:59:41.381Z,62.50
2018-08-24T13:02:09.775Z,60.50
2018-08-24T13:04:38.279Z,59.70
2018-08-24T13:07:06.685Z,58.60
2018-08-24T13:09:35.097Z,58.80
2018-08-24T13:12:03.508Z,58.90
2018-08-24T13:14:32.011Z,57.10
2018-08-24T13:17:00.435Z,55.90
2018-08-24T13:19:28.843Z,56.80
2018-08-24T13:21:57.232Z,55.00
2018-08-24T13:24:25.677Z,53.20
2018-08-24T13:26:54.121Z,51.80
2018-08-24T13:29:22.601Z,51.10
2018-08-24T13:31:51.025Z,51.10
2018-08-24T13:34:19.448Z,49.60
2018-08-24T13:36:48.086Z,49.70
2018-08-24T13:39:16.575Z,47.50
2018-08-24T13:41:45.060Z,48.10
2018-08-24T13:44:13.522Z,47.60
2018-08-24T13:46:42.097Z,49.30
2018-08-24T13:49:17.142Z,50.60
2018-08-24T13:51:45.596Z,50.70
2018-08-24T13:54:14.010Z,50.30
2018-08-24T13:56:42.475Z,50.40
2018-08-24T13:59:11.045Z,50.00
2018-08-24T14:01:39.507Z,49.90
2018-08-24T14:04:07.998Z,50.80
2018-08-24T14:06:36.637Z,50.70
2018-08-24T14:09:07.886Z,51.80
2018-08-24T14:11:36.411Z,52.30
2018-08-24T14:14:04.842Z,53.50
2018-08-24T14:16:33.337Z,54.50
2018-08-24T14:19:01.891Z,55.60
2018-08-24T14:21:30.378Z,55.70
2018-08-24T14:23:58.783Z,54.40
2018-08-24T14:26:27.229Z,54.70
2018-08-24T14:28:55.858Z,54.90
2018-08-24T14:31:24.288Z,55.50
2018-08-24T14:33:53.110Z,55.00
2018-08-24T14:36:21.508Z,56.10
2018-08-24T14:38:50.843Z,55.70
2018-08-24T14:41:19.291Z,55.80
2018-08-24T14:43:47.732Z,56.40
2018-08-24T14:46:16.178Z,56.90
2018-08-24T14:48:44.602Z,57.80
2018-08-24T14:51:13.031Z,58.00
2018-08-24T14:53:41.503Z,58.70
2018-08-24T14:56:11.338Z,58.20
2018-08-24T14:58:40.005Z,58.70
2018-08-24T15:01:08.978Z,57.50
2018-08-24T15:03:37.414Z,56.80
2018-08-24T15:06:06.015Z,57.70
2018-08-24T15:08:35.603Z,58.90
2018-08-24T15:11:04.043Z,59.50
2018-08-24T15:13:33.872Z,60.10
2018-08-24T15:16:02.523Z,59.80
2018-08-24T15:18:30.928Z,60.40
2018-08-24T15:20:59.375Z,60.00
2018-08-24T15:23:27.984Z,59.90
2018-08-24T15:25:56.421Z,59.80
2018-08-24T15:28:24.873Z,60.40
2018-08-24T15:30:53.306Z,59.80
2018-08-24T15:33:21.864Z,60.10
2018-08-24T15:35:51.227Z,59.70
2018-08-24T15:38:19.647Z,59.90
2018-08-24T15:40:48.076Z,60.90
2018-08-24T15:43:16.547Z,59.90
2018-08-24T15:45:44.946Z,59.90
2018-08-24T15:48:13.361Z,60.50
2018-08-24T15:50:42.302Z,61.00
2018-08-24T15:53:10.769Z,61.30
2018-08-24T15:55:39.169Z,61.90
2018-08-24T15:58:07.590Z,62.10
2018-08-24T16:00:35.952Z,60.90
2018-08-24T16:03:04.478Z,61.80
2018-08-24T16:05:32.851Z,61.90
2018-08-24T16:08:01.324Z,61.80
2018-08-24T16:10:29.898Z,61.60
2018-08-24T16:12:58.416Z,61.70
2018-08-24T16:15:26.992Z,61.60
2018-08-24T16:18:00.930Z,61.20
2018-08-24T16:20:29.301Z,60.80
2018-08-24T16:22:57.731Z,60.80
2018-08-24T16:25:26.266Z,60.90
2018-08-24T16:27:55.161Z,61.60
2018-08-24T16:30:23.684Z,61.90
2018-08-24T16:32:51.993Z,61.80
2018-08-24T16:35:20.399Z,62.30
2018-08-24T16:37:48.848Z,62.30
2018-08-24T16:40:17.222Z,62.70
2018-08-24T16:42:45.641Z,61.90
2018-08-24T16:45:14.033Z,61.30
2018-08-24T16:47:42.439Z,61.90
2018-08-24T16:50:10.842Z,61.80
2018-08-24T16:52:39.245Z,61.30
2018-08-24T16:55:08.078Z,61.50
2018-08-24T16:57:36.486Z,61.20
2018-08-24T17:00:05.699Z,60.20
2018-08-24T17:02:37.236Z,60.20
2018-08-24T17:05:06.121Z,61.00
2018-08-24T17:07:34.581Z,60.30
2018-08-24T17:10:02.981Z,60.60
2018-08-24T17:12:31.388Z,60.20
2018-08-24T17:14:59.791Z,60.90
2018-08-24T17:17:28.166Z,60.80
2018-08-24T17:19:56.539Z,60.60
2018-08-24T17:22:24.945Z,60.40
2018-08-24T17:24:53.449Z,60.50
2018-08-24T17:27:22.093Z,60.80
2018-08-24T17:29:50.584Z,61.00
2018-08-24T17:32:19.006Z,60.40
2018-08-24T17:34:47.967Z,60.80
2018-08-24T17:37:16.537Z,61.30
2018-08-24T17:39:44.940Z,61.80
2018-08-24T17:42:13.349Z,62.20
2018-08-24T17:44:42.417Z,62.70
2018-08-24T17:47:10.817Z,63.40
2018-08-24T17:49:39.286Z,64.40
2018-08-24T17:52:07.696Z,64.00
2018-08-24T17:54:36.186Z,64.50
2018-08-24T17:57:04.769Z,64.70
2018-08-24T17:59:33.232Z,65.30
2018-08-24T18:02:01.652Z,65.70
2018-08-24T18:04:30.133Z,66.30
2018-08-24T18:06:58.551Z,66.30
2018-08-24T18:09:26.975Z,66.70
2018-08-24T18:11:55.423Z,67.00
2018-08-24T18:14:23.855Z,67.50
2018-08-24T18:16:52.285Z,67.60
2018-08-24T18:19:20.762Z,67.60
2018-08-24T18:21:50.311Z,68.20
2018-08-24T18:24:33.466Z,67.70
2018-08-24T18:27:01.991Z,67.70
2018-08-24T18:29:30.709Z,67.80
2018-08-24T18:31:59.291Z,67.80
2018-08-24T18:34:27.890Z,67.80
2018-08-24T18:36:56.523Z,68.30
2018-08-24T18:39:25.234Z,68.20
2018-08-24T18:41:53.961Z,67.80
2018-08-24T18:44:22.760Z,68.00
2018-08-24T18:46:52.061Z,68.00
2018-08-24T18:49:20.973Z,68.30
2018-08-24T18:51:49.487Z,67.60
2018-08-24T18:54:23.074Z,68.10
2018-08-24T18:56:53.308Z,68.40
2018-08-24T18:59:22.165Z,68.30
2018-08-24T19:01:51.137Z,68.20
2018-08-24T19:04:19.654Z,68.20
2018-08-24T19:06:48.081Z,68.10
2018-08-24T19:09:16.555Z,68.90
2018-08-24T19:11:50.421Z,68.30
2018-08-24T19:14:19.190Z,68.10
2018-08-24T19:16:47.594Z,67.60
2018-08-24T19:19:21.288Z,67.80
2018-08-24T19:21:50.439Z,66.00
2018-08-24T19:24:18.872Z,64.30
2018-08-24T19:26:47.282Z,64.30
2018-08-24T19:29:20.917Z,62.60
2018-08-24T19:31:49.736Z,62.40
2018-08-24T19:34:18.131Z,61.00
2018-08-24T19:36:46.560Z,60.50
2018-08-24T19:39:15.361Z,60.40
2018-08-24T19:41:49.018Z,59.60
2018-08-24T19:44:17.405Z,59.30
2018-08-24T19:46:46.005Z,59.20
2018-08-24T19:49:15.437Z,58.90
2018-08-24T19:51:44.022Z,59.10
2018-08-24T19:54:13.218Z,59.30
2018-08-24T19:56:41.918Z,58.80
2018-08-24T19:59:11.724Z,59.40
2018-08-24T20:01:40.176Z,58.90
2018-08-24T20:04:09.115Z,58.90
2018-08-24T20:06:43.231Z,59.00
2018-08-24T20:09:17.454Z,59.30
2018-08-24T20:11:49.587Z,58.60
2018-08-24T20:14:23.373Z,58.50
2018-08-24T20:16:57.221Z,58.30
2018-08-24T20:19:26.201Z,58.20
2018-08-24T20:21:54.674Z,58.60
2018-08-24T20:24:23.367Z,58.10
2018-08-24T20:26:51.711Z,58.30
2018-08-24T20:29:20.611Z,58.60
2018-08-24T20:31:49.142Z,58.60
2018-08-24T20:34:18.001Z,58.00
2018-08-24T20:36:46.462Z,58.80
2018-08-24T20:39:14.925Z,58.50
2018-08-24T20:41:43.429Z,58.80
2018-08-24T20:44:11.895Z,58.80
2018-08-24T20:46:40.398Z,59.30
2018-08-24T20:49:08.782Z,58.80
2018-08-24T20:51:37.194Z,58.90
2018-08-24T20:54:05.719Z,59.20
2018-08-24T20:56:34.198Z,58.90
2018-08-24T20:59:02.669Z,58.80
2018-08-24T21:01:31.198Z,59.40
2018-08-24T21:03:59.650Z,59.30
2018-08-24T21:06:28.087Z,59.10
2018-08-24T21:08:56.562Z,59.10
2018-08-24T21:11:24.961Z,58.90
2018-08-24T21:13:53.400Z,58.80
2018-08-24T21:16:21.816Z,58.80
2018-08-24T21:18:50.255Z,58.60
2018-08-24T21:21:18.704Z,58.40
2018-08-24T21:23:47.101Z,58.40
2018-08-24T21:26:15.611Z,58.30
2018-08-24T21:28:44.072Z,58.20
2018-08-24T21:31:12.490Z,58.10
2018-08-24T21:33:40.937Z,58.40
2018-08-24T21:36:09.406Z,57.80
2018-08-24T21:38:37.860Z,57.80
2018-08-24T21:41:06.317Z,57.90
2018-08-24T21:43:34.754Z,57.70
2018-08-24T21:46:03.290Z,58.10
2018-08-24T21:48:31.662Z,56.80
2018-08-24T21:51:00.085Z,57.00
2018-08-24T21:53:28.541Z,57.00
2018-08-24T21:55:56.980Z,56.90
2018-08-24T21:58:25.481Z,57.50
2018-08-24T22:07:53.138Z,56.90
2018-08-24T22:10:21.517Z,56.70
2018-08-24T22:12:49.920Z,57.10
2018-08-24T22:15:18.327Z,57.10
2018-08-24T22:17:46.742Z,57.00
2018-08-24T22:20:15.164Z,56.90
2018-08-24T22:22:43.624Z,57.10
2018-08-24T22:25:12.031Z,57.50
2018-08-24T22:27:40.424Z,57.60
2018-08-24T22:30:08.872Z,57.40
2018-08-24T22:32:37.286Z,57.50
2018-08-24T22:35:05.682Z,57.60
2018-08-24T22:37:34.034Z,57.40
2018-08-24T22:40:02.409Z,57.00
2018-08-24T22:42:30.877Z,57.00
2018-08-24T22:44:59.292Z,57.30
2018-08-24T22:47:27.683Z,57.60
2018-08-24T22:49:56.158Z,57.60
2018-08-24T22:52:24.618Z,58.00
2018-08-24T22:54:53.042Z,57.90
2018-08-24T22:57:21.427Z,57.70
2018-08-24T22:59:49.906Z,57.60
2018-08-24T23:02:18.326Z,57.40
2018-08-24T23:04:46.720Z,57.50
2018-08-24T23:07:15.175Z,57.40
2018-08-24T23:09:43.601Z,57.40
2018-08-24T23:12:12.977Z,57.60
2018-08-24T23:14:41.395Z,57.70
2018-08-24T23:17:09.810Z,57.80
2018-08-24T23:19:38.210Z,58.00
2018-08-24T23:22:06.792Z,58.20
2018-08-24T23:24:35.186Z,58.30
2018-08-24T23:27:03.582Z,58.00
2018-08-24T23:29:31.942Z,58.10
2018-08-24T23:32:00.632Z,58.30
2018-08-24T23:34:29.002Z,58.30
2018-08-24T23:36:57.411Z,58.70
2018-08-24T23:39:25.807Z,58.80
2018-08-24T23:41:54.231Z,58.90
2018-08-24T23:44:22.626Z,59.00
2018-08-24T23:46:51.020Z,58.90
2018-08-24T23:49:20.517Z,59.00
2018-08-24T23:51:48.968Z,59.20
2018-08-24T23:54:17.431Z,59.60
2018-08-24T23:56:45.914Z,60.00
2018-08-24T23:59:14.330Z,60.40
